createdAt,value
2023-03-29T00:00:35.696Z,87.98
2023-03-29T00:03:04.399Z,87.52
2023-03-29T00:05:37.904Z,87.29
2023-03-29T00:08:05.370Z,87.95
2023-03-29T00:10:35.051Z,88.56
2023-03-29T00:13:03.154Z,88.83
2023-03-29T00:15:31.129Z,89.36
2023-03-29T00:17:58.950Z,88.87
2023-03-29T00:20:26.449Z,90.57
2023-03-29T00:22:56.048Z,90.99
2023-03-29T00:25:23.010Z,91.96
2023-03-29T00:27:49.831Z,91.96
2023-03-29T00:30:19.335Z,92.28
2023-03-29T00:32:47.917Z,92.66
2023-03-29T00:35:16.200Z,93.63
2023-03-29T00:37:47.484Z,94.74
2023-03-29T00:40:15.763Z,95.80
2023-03-29T00:42:46.087Z,96.04
2023-03-29T00:45:15.213Z,95.97
2023-03-29T00:47:46.126Z,95.75
2023-03-29T00:50:28.843Z,97.35
2023-03-29T00:53:16.242Z,96.40
2023-03-29T00:56:02.314Z,96.23
2023-03-29T00:58:37.096Z,96.25
2023-03-29T01:01:14.387Z,96.01
2023-03-29T01:03:56.081Z,94.64
2023-03-29T01:06:37.235Z,95.39
2023-03-29T01:09:11.088Z,94.59
2023-03-29T01:11:57.799Z,94.17
2023-03-29T01:14:37.319Z,92.29
2023-03-29T01:17:07.992Z,92.32
2023-03-29T01:19:48.439Z,92.21
2023-03-29T01:22:50.800Z,92.90
2023-03-29T01:25:37.272Z,92.96
2023-03-29T01:28:36.006Z,94.26
2023-03-29T01:31:14.844Z,94.43
2023-03-29T01:34:00.376Z,92.96
2023-03-29T01:36:57.333Z,92.49
2023-03-29T01:39:25.505Z,93.02
2023-03-29T01:42:12.974Z,93.83
2023-03-29T01:45:13.448Z,94.62
2023-03-29T01:47:58.853Z,94.05
2023-03-29T01:50:43.869Z,94.16
2023-03-29T01:53:19.018Z,94.05
2023-03-29T01:55:56.826Z,94.45
2023-03-29T01:58:29.065Z,94.54
2023-03-29T02:00:56.703Z,94.00
2023-03-29T02:03:31.029Z,93.98
2023-03-29T02:06:00.483Z,93.16
2023-03-29T02:08:29.157Z,92.84
2023-03-29T02:10:56.116Z,93.73
2023-03-29T02:13:24.339Z,93.79
2023-03-29T02:15:51.455Z,93.86
2023-03-29T02:18:20.239Z,94.40
2023-03-29T02:20:52.149Z,95.08
2023-03-29T02:23:26.951Z,95.29
2023-03-29T02:25:59.534Z,96.43
2023-03-29T02:28:31.105Z,96.15
2023-03-29T02:31:22.564Z,97.08
2023-03-29T02:36:47.241Z,96.66
2023-03-29T02:39:16.862Z,97.16
2023-03-29T02:41:49.548Z,97.35
2023-03-29T02:44:23.751Z,97.20
2023-03-29T02:46:54.215Z,97.67
2023-03-29T02:49:21.566Z,98.16
2023-03-29T02:51:54.632Z,99.52
2023-03-29T02:54:34.215Z,99.50
2023-03-29T02:57:07.061Z,99.58
2023-03-29T02:59:34.795Z,99.75
2023-03-29T03:02:03.625Z,99.39
2023-03-29T03:04:34.409Z,99.93
2023-03-29T03:07:02.574Z,99.27
2023-03-29T03:09:29.547Z,98.52
2023-03-29T03:11:56.774Z,98.74
2023-03-29T03:14:24.417Z,98.29
2023-03-29T03:16:53.269Z,98.82
2023-03-29T03:19:21.617Z,99.46
2023-03-29T03:21:49.761Z,100.00
2023-03-29T03:24:17.971Z,99.66
2023-03-29T03:26:51.967Z,100.00
2023-03-29T03:29:19.380Z,98.49
2023-03-29T03:31:54.454Z,99.52
2023-03-29T03:34:23.391Z,99.22
2023-03-29T03:36:50.946Z,98.36
2023-03-29T03:39:18.898Z,98.48
2023-03-29T03:41:46.098Z,98.79
2023-03-29T03:44:13.489Z,98.73
2023-03-29T03:46:42.748Z,99.14
2023-03-29T03:49:13.253Z,98.00
2023-03-29T03:51:42.769Z,99.21
2023-03-29T03:54:09.736Z,99.70
2023-03-29T03:56:42.669Z,99.96
2023-03-29T03:59:10.749Z,100.00
2023-03-29T04:01:45.856Z,99.90
2023-03-29T04:04:13.205Z,99.58
2023-03-29T04:06:43.578Z,99.11
2023-03-29T04:09:16.469Z,99.70
2023-03-29T04:11:44.366Z,98.52
2023-03-29T04:14:13.592Z,98.83
2023-03-29T04:16:41.134Z,99.81
2023-03-29T04:19:09.332Z,98.66
2023-03-29T04:21:38.071Z,99.54
2023-03-29T04:24:06.292Z,99.96
2023-03-29T04:26:40.614Z,100.00
2023-03-29T04:29:10.120Z,100.00
2023-03-29T04:31:39.498Z,100.00
2023-03-29T04:34:15.577Z,100.00
2023-03-29T04:36:43.855Z,100.00
2023-03-29T04:39:11.575Z,100.00
2023-03-29T04:41:38.324Z,100.00
2023-03-29T04:44:09.209Z,100.00
2023-03-29T04:46:41.122Z,100.00
2023-03-29T04:49:07.652Z,100.00
2023-03-29T04:51:36.042Z,100.00
2023-03-29T04:54:11.628Z,100.00
2023-03-29T04:56:40.950Z,100.00
2023-03-29T04:59:13.293Z,100.00
2023-03-29T05:01:41.162Z,100.00
2023-03-29T05:04:12.758Z,100.00
2023-03-29T05:06:40.618Z,100.00
2023-03-29T05:09:09.118Z,100.00
2023-03-29T05:11:39.738Z,100.00
2023-03-29T05:14:07.522Z,100.00
2023-03-29T05:16:34.862Z,100.00
2023-03-29T05:19:04.707Z,100.00
2023-03-29T05:21:31.625Z,100.00
2023-03-29T05:24:03.268Z,100.00
2023-03-29T05:26:34.496Z,100.00
2023-03-29T05:29:04.759Z,100.00
2023-03-29T05:31:32.686Z,100.00
2023-03-29T05:34:00.715Z,100.00
2023-03-29T05:36:40.371Z,100.00
2023-03-29T05:39:07.608Z,100.00
2023-03-29T05:41:35.847Z,100.00
2023-03-29T05:44:05.581Z,100.00
2023-03-29T05:46:32.725Z,100.00
2023-03-29T05:49:05.427Z,100.00
2023-03-29T05:51:42.011Z,100.00
2023-03-29T05:54:11.968Z,100.00
2023-03-29T05:56:41.282Z,100.00
2023-03-29T05:59:10.161Z,100.00
2023-03-29T06:01:40.559Z,100.00
2023-03-29T06:04:08.444Z,100.00
2023-03-29T06:06:37.005Z,100.00
2023-03-29T06:09:04.550Z,98.94
2023-03-29T06:11:34.984Z,99.67
2023-03-29T06:14:02.931Z,98.65
2023-03-29T06:16:31.835Z,97.93
2023-03-29T06:19:03.978Z,97.51
2023-03-29T06:21:31.855Z,95.64
2023-03-29T06:24:08.892Z,96.50
2023-03-29T06:26:35.984Z,94.93
2023-03-29T06:29:05.568Z,95.73
2023-03-29T06:31:32.961Z,95.02
2023-03-29T06:34:01.870Z,96.52
2023-03-29T06:36:30.351Z,97.03
2023-03-29T06:38:57.158Z,96.66
2023-03-29T06:41:27.001Z,97.93
2023-03-29T06:43:55.191Z,98.07
2023-03-29T06:46:23.948Z,97.54
2023-03-29T06:48:52.211Z,94.98
2023-03-29T06:51:21.892Z,94.48
2023-03-29T06:53:57.842Z,91.54
2023-03-29T06:56:25.124Z,91.50
2023-03-29T06:58:52.132Z,91.41
2023-03-29T07:01:24.212Z,89.60
2023-03-29T07:06:48.600Z,90.47
2023-03-29T07:09:20.402Z,90.71
2023-03-29T07:11:51.219Z,90.49
2023-03-29T07:14:18.311Z,88.64
2023-03-29T07:16:47.992Z,88.76
2023-03-29T07:19:17.056Z,90.05
2023-03-29T07:21:44.177Z,88.58
2023-03-29T07:24:14.291Z,90.03
2023-03-29T07:26:52.317Z,91.35
2023-03-29T07:29:31.367Z,91.82
2023-03-29T07:32:00.148Z,91.98
2023-03-29T07:34:28.316Z,90.48
2023-03-29T07:36:55.225Z,88.06
2023-03-29T07:39:25.613Z,87.68
2023-03-29T07:41:53.372Z,87.62
2023-03-29T07:44:22.560Z,86.41
2023-03-29T07:46:52.431Z,84.86
2023-03-29T07:49:39.123Z,84.57
2023-03-29T07:52:10.058Z,83.67
2023-03-29T07:54:42.150Z,84.06
2023-03-29T07:57:21.543Z,84.71
2023-03-29T08:00:09.977Z,86.13
2023-03-29T08:02:40.956Z,87.22
2023-03-29T08:05:37.926Z,84.24
2023-03-29T08:08:10.080Z,83.93
2023-03-29T08:10:38.227Z,85.27
2023-03-29T08:13:11.839Z,84.85
2023-03-29T08:21:08.521Z,82.56
2023-03-29T08:23:39.786Z,80.08
2023-03-29T08:26:09.002Z,79.75
2023-03-29T08:28:40.742Z,78.34
2023-03-29T08:31:10.509Z,77.01
2023-03-29T08:33:40.092Z,75.63
2023-03-29T08:36:07.276Z,77.30
2023-03-29T08:38:37.132Z,76.96
2023-03-29T08:41:30.276Z,77.09
2023-03-29T08:44:22.166Z,76.35
2023-03-29T08:47:30.043Z,76.23
2023-03-29T08:49:58.867Z,77.49
2023-03-29T08:52:48.913Z,76.16
2023-03-29T08:55:39.538Z,76.09
2023-03-29T08:58:12.225Z,75.43
2023-03-29T09:00:47.404Z,71.73
2023-03-29T09:03:32.593Z,69.94
2023-03-29T09:06:27.585Z,68.58
2023-03-29T09:15:01.086Z,65.05
2023-03-29T09:18:21.682Z,66.05
2023-03-29T09:21:17.951Z,67.33
2023-03-29T09:24:10.669Z,67.70
2023-03-29T09:26:48.568Z,68.29
2023-03-29T09:29:50.406Z,68.31
2023-03-29T09:32:42.461Z,66.66
2023-03-29T09:35:20.594Z,63.55
2023-03-29T09:37:54.537Z,64.48
2023-03-29T09:40:55.696Z,64.76
2023-03-29T09:43:32.884Z,64.85
2023-03-29T09:46:04.733Z,64.55
2023-03-29T09:48:38.112Z,63.53
2023-03-29T09:51:09.322Z,61.47
2023-03-29T09:53:37.353Z,60.80
2023-03-29T09:56:05.637Z,61.23
2023-03-29T09:58:33.172Z,61.84
2023-03-29T10:01:06.561Z,62.38
2023-03-29T10:03:36.086Z,61.28
2023-03-29T10:06:12.961Z,61.22
2023-03-29T10:11:34.670Z,62.19
2023-03-29T10:14:16.262Z,61.86
2023-03-29T10:16:47.729Z,62.34
2023-03-29T10:19:38.242Z,63.06
2023-03-29T10:22:20.532Z,63.46
2023-03-29T10:24:59.408Z,64.76
2023-03-29T10:27:33.236Z,66.17
2023-03-29T10:30:03.224Z,66.25
2023-03-29T10:32:51.210Z,65.93
2023-03-29T10:35:33.039Z,66.56
2023-03-29T10:38:11.971Z,65.21
2023-03-29T10:40:52.863Z,65.85
2023-03-29T10:43:26.763Z,64.70
2023-03-29T10:46:27.464Z,64.44
2023-03-29T10:49:01.906Z,63.36
2023-03-29T10:51:36.278Z,60.09
2023-03-29T10:57:12.592Z,58.07
2023-03-29T11:00:06.501Z,58.00
2023-03-29T11:03:09.514Z,60.80
2023-03-29T11:05:49.754Z,62.57
2023-03-29T11:11:12.015Z,60.64
2023-03-29T11:14:24.512Z,60.43
2023-03-29T11:17:40.243Z,58.74
2023-03-29T11:20:31.970Z,58.41
2023-03-29T11:23:07.508Z,59.60
2023-03-29T11:25:57.883Z,62.05
2023-03-29T11:28:28.650Z,61.56
2023-03-29T11:31:42.994Z,59.56
2023-03-29T11:34:52.887Z,57.79
2023-03-29T11:37:45.103Z,56.13
2023-03-29T11:40:39.669Z,57.20
2023-03-29T11:43:29.897Z,58.49
2023-03-29T11:49:02.826Z,58.61
2023-03-29T11:51:36.284Z,59.33
2023-03-29T11:54:30.008Z,59.87
2023-03-29T11:57:11.140Z,59.70
2023-03-29T11:59:47.582Z,60.71
2023-03-29T12:02:37.458Z,61.95
2023-03-29T12:05:14.823Z,62.33
2023-03-29T12:07:55.939Z,62.14
2023-03-29T12:10:29.025Z,62.31
2023-03-29T12:13:02.457Z,62.13
2023-03-29T12:15:56.314Z,63.18
2023-03-29T12:18:56.837Z,63.24
2023-03-29T12:21:31.431Z,63.24
2023-03-29T12:23:59.174Z,62.59
2023-03-29T12:27:04.966Z,64.93
2023-03-29T12:29:31.972Z,65.69
2023-03-29T12:32:32.084Z,64.65
2023-03-29T12:35:19.862Z,64.13
2023-03-29T12:38:12.776Z,64.71
2023-03-29T12:43:38.767Z,64.76
2023-03-29T12:46:22.371Z,66.56
2023-03-29T12:51:51.015Z,69.56
2023-03-29T12:54:25.026Z,69.35
2023-03-29T12:57:08.531Z,68.53
2023-03-29T12:59:48.202Z,67.25
2023-03-29T13:02:35.348Z,66.89
2023-03-29T13:05:25.863Z,66.04
2023-03-29T13:08:04.980Z,67.99
2023-03-29T13:10:40.867Z,68.73
2023-03-29T13:13:19.204Z,69.47
2023-03-29T13:15:48.272Z,68.24
2023-03-29T13:18:49.651Z,68.55
2023-03-29T13:21:26.220Z,67.54
2023-03-29T13:24:23.617Z,68.29
2023-03-29T13:26:59.915Z,67.67
2023-03-29T13:29:59.507Z,67.08
2023-03-29T13:32:44.432Z,67.67
2023-03-29T13:35:14.212Z,68.39
2023-03-29T13:37:54.416Z,69.36
2023-03-29T13:40:58.897Z,67.21
2023-03-29T13:43:34.611Z,66.07
2023-03-29T13:46:01.362Z,66.08
2023-03-29T13:48:30.943Z,66.95
2023-03-29T13:54:01.235Z,62.88
2023-03-29T13:56:58.946Z,61.80
2023-03-29T13:59:39.754Z,61.78
2023-03-29T14:02:08.366Z,60.49
2023-03-29T14:04:46.941Z,60.25
2023-03-29T14:07:15.507Z,61.27
2023-03-29T14:09:53.761Z,62.29
2023-03-29T14:15:34.311Z,62.00
2023-03-29T14:18:12.440Z,62.32
2023-03-29T14:20:51.788Z,62.25
2023-03-29T14:23:28.152Z,61.56
2023-03-29T14:26:35.859Z,60.45
2023-03-29T14:29:06.954Z,59.84
2023-03-29T14:31:40.814Z,60.51
2023-03-29T14:34:25.300Z,59.96
2023-03-29T14:36:58.653Z,59.45
2023-03-29T14:39:31.957Z,58.82
2023-03-29T14:42:04.330Z,58.46
2023-03-29T14:44:50.359Z,58.84
2023-03-29T14:47:41.094Z,58.71
2023-03-29T14:50:17.160Z,58.09
2023-03-29T14:52:49.245Z,58.65
2023-03-29T14:55:25.445Z,59.79
2023-03-29T14:58:01.783Z,59.30
2023-03-29T15:00:44.927Z,58.18
2023-03-29T15:03:18.250Z,57.54
2023-03-29T15:05:52.213Z,57.12
2023-03-29T15:08:54.436Z,57.20
2023-03-29T15:11:29.949Z,57.28
2023-03-29T15:14:18.341Z,57.84
2023-03-29T15:16:47.463Z,57.90
2023-03-29T15:19:22.109Z,58.00
2023-03-29T15:24:34.047Z,59.39
2023-03-29T15:27:13.208Z,58.55
2023-03-29T15:29:48.875Z,58.61
2023-03-29T15:32:36.171Z,57.95
2023-03-29T15:41:04.594Z,56.44
2023-03-29T15:46:49.770Z,57.24
2023-03-29T15:49:20.455Z,56.72
2023-03-29T15:52:12.481Z,56.57
2023-03-29T15:57:23.867Z,56.86
2023-03-29T15:59:59.741Z,56.97
2023-03-29T16:02:28.440Z,57.31
2023-03-29T16:04:57.252Z,57.37
2023-03-29T16:10:12.001Z,58.17
2023-03-29T16:12:48.376Z,58.77
2023-03-29T16:18:17.866Z,58.37
2023-03-29T16:20:44.968Z,58.33
2023-03-29T16:23:17.883Z,58.36
2023-03-29T16:25:46.221Z,58.92
2023-03-29T16:28:19.473Z,59.38
2023-03-29T16:30:57.337Z,59.54
2023-03-29T16:33:24.201Z,60.53
2023-03-29T16:36:19.083Z,62.13
2023-03-29T16:38:54.640Z,63.11
2023-03-29T16:41:21.808Z,64.77
2023-03-29T16:43:50.388Z,65.37
2023-03-29T16:46:17.609Z,66.27
2023-03-29T16:48:46.568Z,66.99
2023-03-29T16:51:14.540Z,67.75
2023-03-29T16:53:48.859Z,68.02
2023-03-29T16:56:18.559Z,68.48
2023-03-29T17:01:37.495Z,68.56
2023-03-29T17:04:04.738Z,69.17
2023-03-29T17:06:34.744Z,69.24
2023-03-29T17:09:05.388Z,69.51
2023-03-29T17:11:34.179Z,70.06
2023-03-29T17:14:03.443Z,70.41
2023-03-29T17:16:30.393Z,70.43
2023-03-29T17:19:03.052Z,70.59
2023-03-29T17:21:29.739Z,70.87
2023-03-29T17:24:03.953Z,71.29
2023-03-29T17:26:35.771Z,71.99
2023-03-29T17:29:09.319Z,72.40
2023-03-29T17:31:48.948Z,72.69
2023-03-29T17:34:17.787Z,73.76
2023-03-29T17:36:56.635Z,74.29
2023-03-29T17:39:26.976Z,74.35
2023-03-29T17:41:54.134Z,75.25
2023-03-29T17:47:08.176Z,76.06
2023-03-29T17:49:35.188Z,76.74
2023-03-29T17:52:02.422Z,77.57
2023-03-29T17:54:38.213Z,78.93
2023-03-29T17:57:05.233Z,79.92
2023-03-29T17:59:37.066Z,80.42
2023-03-29T18:02:05.696Z,81.63
2023-03-29T18:04:32.899Z,83.23
2023-03-29T18:07:00.950Z,85.11
2023-03-29T18:09:30.583Z,87.60
2023-03-29T18:11:59.417Z,88.94
2023-03-29T18:14:26.028Z,90.82
2023-03-29T18:17:02.132Z,91.87
2023-03-29T18:19:28.918Z,93.34
2023-03-29T18:22:04.298Z,94.37
2023-03-29T18:24:34.405Z,96.04
2023-03-29T18:27:06.310Z,97.22
2023-03-29T18:29:33.536Z,97.65
2023-03-29T18:32:08.814Z,98.22
2023-03-29T18:34:39.664Z,99.15
2023-03-29T18:37:14.808Z,99.65
2023-03-29T18:39:49.026Z,100.00
2023-03-29T18:42:17.953Z,100.00
2023-03-29T18:54:08.027Z,100.00
2023-03-29T18:59:19.037Z,100.00
2023-03-29T19:01:48.194Z,100.00
2023-03-29T19:04:16.305Z,100.00
2023-03-29T19:06:46.134Z,100.00
2023-03-29T19:12:06.040Z,100.00
2023-03-29T19:14:33.082Z,100.00
2023-03-29T19:16:59.714Z,100.00
2023-03-29T19:19:27.260Z,100.00
2023-03-29T19:21:57.611Z,100.00
2023-03-29T19:30:17.204Z,100.00
2023-03-29T19:32:47.182Z,100.00
2023-03-29T19:35:26.917Z,100.00
2023-03-29T19:37:58.385Z,100.00
2023-03-29T19:40:27.801Z,100.00
2023-03-29T19:42:55.053Z,100.00
2023-03-29T19:45:23.770Z,98.95
2023-03-29T19:48:03.338Z,94.90
2023-03-29T19:53:38.652Z,92.69
2023-03-29T19:56:16.756Z,93.07
2023-03-29T20:02:01.237Z,93.01
2023-03-29T20:04:37.073Z,92.49
2023-03-29T20:07:41.911Z,92.44
2023-03-29T20:10:12.294Z,91.64
2023-03-29T20:12:49.243Z,91.33
2023-03-29T20:18:36.863Z,91.26
2023-03-29T20:27:58.935Z,89.56
2023-03-29T20:30:29.734Z,89.07
2023-03-29T20:36:43.461Z,89.23
2023-03-29T20:45:33.221Z,89.77
2023-03-29T20:48:53.594Z,89.78
2023-03-29T20:51:54.783Z,89.51
2023-03-29T20:54:26.127Z,89.51
2023-03-29T21:03:21.774Z,87.26
2023-03-29T21:06:09.564Z,86.92
2023-03-29T21:08:43.140Z,85.80
2023-03-29T21:11:14.792Z,84.51
2023-03-29T21:14:31.198Z,83.17
2023-03-29T21:17:13.892Z,82.87
2023-03-29T21:19:45.232Z,82.13
2023-03-29T21:23:17.117Z,82.57
2023-03-29T21:25:17.621Z,82.42
2023-03-29T21:27:53.450Z,81.77
2023-03-29T21:30:24.888Z,81.34
2023-03-29T21:33:22.708Z,80.67
2023-03-29T21:35:43.607Z,80.17
2023-03-29T21:38:10.263Z,80.01
2023-03-29T21:40:43.000Z,80.01
2023-03-29T21:43:18.277Z,80.53
2023-03-29T21:46:01.400Z,80.14
2023-03-29T21:48:35.305Z,80.14
2023-03-29T21:51:03.970Z,80.52
2023-03-29T21:53:32.396Z,80.45
2023-03-29T21:55:59.516Z,80.90
2023-03-29T21:58:26.729Z,81.18
2023-03-29T22:00:56.639Z,81.82
2023-03-29T22:03:24.073Z,81.77
2023-03-29T22:06:06.504Z,82.10
2023-03-29T22:08:34.898Z,82.81
2023-03-29T22:11:09.847Z,83.07
2023-03-29T22:13:37.587Z,83.16
2023-03-29T22:16:05.273Z,83.89
2023-03-29T22:18:50.441Z,84.43
2023-03-29T22:21:25.203Z,85.03
2023-03-29T22:24:01.340Z,84.86
2023-03-29T22:26:34.030Z,85.63
2023-03-29T22:29:09.351Z,85.91
2023-03-29T22:31:39.140Z,86.03
2023-03-29T22:34:07.829Z,86.36
2023-03-29T22:36:37.064Z,87.32
2023-03-29T22:39:08.826Z,87.17
2023-03-29T22:42:01.081Z,87.32
2023-03-29T22:44:29.488Z,87.56
2023-03-29T22:47:06.243Z,87.88
2023-03-29T22:49:39.087Z,88.43
2023-03-29T22:52:18.126Z,89.21
2023-03-29T22:55:10.442Z,89.94
2023-03-29T22:57:51.054Z,90.30
2023-03-29T23:00:18.296Z,90.48
2023-03-29T23:02:48.271Z,91.14
2023-03-29T23:05:16.744Z,91.68
2023-03-29T23:07:48.494Z,92.20
2023-03-29T23:10:17.740Z,92.72
2023-03-29T23:12:47.190Z,92.96
2023-03-29T23:15:18.772Z,93.90
2023-03-29T23:17:46.660Z,94.16
2023-03-29T23:20:14.713Z,94.48
2023-03-29T23:22:46.478Z,94.69
2023-03-29T23:25:13.380Z,95.33
2023-03-29T23:27:40.724Z,95.69
2023-03-29T23:30:08.963Z,96.91
2023-03-29T23:32:37.842Z,96.64
2023-03-29T23:35:05.113Z,97.73
2023-03-29T23:37:39.361Z,97.66
2023-03-29T23:40:14.114Z,98.08
2023-03-29T23:42:47.316Z,98.94
2023-03-29T23:45:16.796Z,99.58
2023-03-29T23:47:47.087Z,100.00
2023-03-29T23:50:27.556Z,100.00
2023-03-29T23:52:55.520Z,100.00
2023-03-29T23:55:22.591Z,100.00
2023-03-29T23:57:49.235Z,100.00
